Time;durP1;ratioP1;P1;durP2;ratioP2;P2;SDS_P1;SDS_P2;PMS_P1;PMS_P2;Temp;Humidity;BMP_temperature;BMP_pressure;BME280_temperature;BME280_humidity;BME280_pressure;Samples;Min_cycle;Max_cycle;Signal;HPM_P1;HPM_P2
2023/07/31 00:02:07;;;;;;;7.50;5.20;;;;;;;21.09;70.65;98850.84;4346478;33;33924;-85
2023/07/31 00:04:35;;;;;;;10.25;5.40;;;;;;;21.11;70.71;98860.44;4348353;32;33667;-89
2023/07/31 00:07:04;;;;;;;7.70;5.78;;;;;;;21.24;70.17;98860.84;4350247;32;34928;-93
2023/07/31 00:09:32;;;;;;;7.47;5.30;;;;;;;20.64;72.87;98859.41;4347815;32;33620;-86
2023/07/31 00:12:01;;;;;;;7.25;5.37;;;;;;;20.99;71.46;98860.88;4348211;32;33378;-87
2023/07/31 00:14:28;;;;;;;7.57;5.07;;;;;;;21.49;69.27;98850.31;4346252;32;33374;-90
2023/07/31 00:16:56;;;;;;;8.50;5.20;;;;;;;21.41;69.34;98847.09;4345398;33;34183;-90
2023/07/31 00:19:24;;;;;;;7.60;5.80;;;;;;;21.29;69.92;98845.75;4346227;32;33534;-89
2023/07/31 00:21:51;;;;;;;7.25;5.43;;;;;;;21.19;70.03;98852.25;4346298;32;33480;-87
2023/07/31 00:24:19;;;;;;;10.73;6.32;;;;;;;21.27;69.85;98850.19;4350553;32;34501;-85
2023/07/31 00:26:46;;;;;;;8.00;5.75;;;;;;;21.10;70.72;98864.00;4349957;32;34995;-87
2023/07/31 00:29:14;;;;;;;7.93;6.07;;;;;;;21.23;69.81;98861.78;4346484;32;33922;-87
2023/07/31 00:31:41;;;;;;;9.05;5.20;;;;;;;21.11;70.67;98859.56;4361165;32;33530;-88
2023/07/31 00:34:09;;;;;;;8.88;5.40;;;;;;;21.26;69.72;98853.75;4360768;32;33936;-90
2023/07/31 00:36:37;;;;;;;7.30;5.35;;;;;;;21.38;69.21;98861.25;4361052;32;33934;-87
2023/07/31 00:39:06;;;;;;;7.55;5.20;;;;;;;21.45;68.80;98861.91;4360993;32;33861;-91
2023/07/31 00:41:35;;;;;;;8.00;5.25;;;;;;;21.19;69.51;98856.66;4359108;32;32972;-90
2023/07/31 00:44:03;;;;;;;7.55;4.93;;;;;;;20.71;71.95;98858.28;4345482;33;33887;-86
2023/07/31 00:46:30;;;;;;;9.40;5.15;;;;;;;20.77;71.70;98871.25;4345766;33;34112;-89
2023/07/31 00:48:59;;;;;;;8.43;5.22;;;;;;;20.73;71.93;98864.38;4319962;33;32487;-85
2023/07/31 00:51:26;;;;;;;8.18;5.37;;;;;;;20.70;72.10;98867.09;4345121;33;33465;-86
2023/07/31 00:53:56;;;;;;;7.50;5.40;;;;;;;20.81;71.46;98867.63;4345619;33;33918;-89
2023/07/31 00:56:25;;;;;;;8.65;5.12;;;;;;;20.45;73.41;98866.16;4345636;33;34240;-90
2023/07/31 00:58:53;;;;;;;7.95;5.62;;;;;;;21.05;70.74;98859.78;4331872;33;33987;-88
2023/07/31 01:01:21;;;;;;;7.75;5.68;;;;;;;20.08;74.92;98865.53;4345599;33;33445;-86
2023/07/31 01:03:53;;;;;;;10.13;5.70;;;;;;;20.24;74.43;98865.94;4345496;33;34071;-87
2023/07/31 01:06:35;;;;;;;6.85;5.05;;;;;;;20.44;73.57;98873.19;4345296;33;33947;-86
2023/07/31 01:09:04;;;;;;;7.72;5.45;;;;;;;20.61;72.62;98867.44;4345438;33;34480;-89
2023/07/31 01:11:35;;;;;;;8.68;5.22;;;;;;;20.39;73.64;98870.72;4345437;33;33215;-87
2023/07/31 01:14:02;;;;;;;7.50;5.53;;;;;;;20.59;72.75;98875.34;4331303;33;34533;-87
2023/07/31 01:16:30;;;;;;;9.05;5.55;;;;;;;20.36;73.86;98873.44;4344988;32;35073;-86
2023/07/31 01:18:58;;;;;;;7.22;5.60;;;;;;;20.65;72.47;98887.47;4352535;32;35294;-86
2023/07/31 01:21:35;;;;;;;7.87;5.20;;;;;;;20.23;74.56;98890.53;4360212;32;33494;-89
2023/07/31 01:24:21;;;;;;;7.65;5.32;;;;;;;20.44;73.46;98883.72;4359927;32;33968;-86
2023/07/31 01:27:21;;;;;;;9.65;5.85;;;;;;;20.59;72.70;98896.44;4359830;32;34910;-88
2023/07/31 01:30:04;;;;;;;7.97;5.03;;;;;;;20.60;72.59;98886.75;4323475;33;33942;-91
2023/07/31 01:32:32;;;;;;;7.00;5.28;;;;;;;20.85;71.31;98885.03;4331676;33;34863;-86
2023/07/31 01:35:00;;;;;;;7.90;5.22;;;;;;;21.14;69.74;98880.56;4331689;33;34691;-92
2023/07/31 01:37:28;;;;;;;7.78;5.40;;;;;;;21.03;70.02;98878.28;4345132;33;34261;-85
2023/07/31 01:39:56;;;;;;;6.32;4.93;;;;;;;20.72;71.15;98870.56;4345021;33;33487;-85
2023/07/31 01:42:24;;;;;;;7.82;4.35;;;;;;;20.96;69.99;98854.84;4344773;33;33495;-85
2023/07/31 01:44:51;;;;;;;7.57;5.10;;;;;;;20.61;70.71;98865.66;4344434;33;33388;-86
2023/07/31 01:47:20;;;;;;;8.77;5.07;;;;;;;20.84;70.09;98851.72;4345086;33;34914;-88
2023/07/31 01:49:48;;;;;;;6.25;4.65;;;;;;;20.84;69.75;98862.25;4344832;33;34098;-87
2023/07/31 01:52:15;;;;;;;8.85;4.90;;;;;;;20.68;70.54;98847.84;4345048;33;33251;-88
2023/07/31 01:54:43;;;;;;;7.22;5.37;;;;;;;20.79;69.96;98845.72;4344674;33;33759;-92
2023/07/31 01:57:11;;;;;;;8.18;5.00;;;;;;;20.86;69.91;98849.84;4344787;33;34990;-85
2023/07/31 01:59:38;;;;;;;7.40;4.70;;;;;;;21.01;69.12;98852.88;4344355;33;33859;-90
2023/07/31 02:02:06;;;;;;;8.07;4.78;;;;;;;21.05;68.79;98849.22;4331333;33;34297;-93
2023/07/31 02:04:34;;;;;;;9.45;4.55;;;;;;;20.90;69.05;98847.97;4346618;32;33584;-89
2023/07/31 02:07:03;;;;;;;9.20;4.50;;;;;;;21.19;67.78;98846.12;4361474;32;34142;-87
2023/07/31 02:09:30;;;;;;;7.35;3.95;;;;;;;21.00;68.02;98853.81;4361606;32;34244;-89
2023/07/31 02:11:59;;;;;;;7.25;3.75;;;;;;;21.10;67.40;98848.19;4361619;32;33386;-89
2023/07/31 02:14:26;;;;;;;6.18;3.72;;;;;;;21.11;67.20;98854.31;4361722;32;33937;-92
2023/07/31 02:16:54;;;;;;;7.72;3.70;;;;;;;21.12;66.93;98845.47;4348212;32;33736;-85
2023/07/31 02:19:21;;;;;;;5.70;3.22;;;;;;;21.07;66.49;98848.28;4346908;33;33770;-85
2023/07/31 02:21:49;;;;;;;5.22;3.47;;;;;;;20.58;68.57;98854.34;4346896;33;33400;-91
2023/07/31 02:24:16;;;;;;;5.35;3.17;;;;;;;20.69;68.01;98857.50;4346805;33;33604;-85
2023/07/31 02:26:44;;;;;;;5.10;2.95;;;;;;;20.74;68.04;98854.69;4346587;33;33795;-85
2023/07/31 02:29:11;;;;;;;6.53;3.72;;;;;;;20.98;66.79;98864.38;4346205;33;34183;-86
2023/07/31 02:31:39;;;;;;;6.22;3.50;;;;;;;20.99;66.74;98862.66;4346808;33;33527;-88
2023/07/31 02:34:07;;;;;;;6.37;4.03;;;;;;;20.81;67.15;98870.25;4346505;33;33954;-89
2023/07/31 02:36:34;;;;;;;5.53;3.10;;;;;;;20.61;68.05;98870.91;4346610;33;34148;-86
2023/07/31 02:39:02;;;;;;;5.00;2.55;;;;;;;20.90;66.92;98871.69;4346961;32;33659;-88
2023/07/31 02:41:30;;;;;;;7.18;3.30;;;;;;;20.64;67.66;98867.28;4356405;32;33175;-85
2023/07/31 02:43:57;;;;;;;5.70;3.45;;;;;;;20.79;66.82;98866.78;4361291;32;34007;-90
2023/07/31 02:46:25;;;;;;;5.05;2.92;;;;;;;20.71;67.01;98879.34;4360932;32;33606;-86
2023/07/31 02:48:52;;;;;;;5.03;3.28;;;;;;;20.70;67.01;98885.53;4358091;32;33732;-86
2023/07/31 02:51:21;;;;;;;4.70;2.92;;;;;;;20.53;67.33;98890.50;4349728;32;33385;-88
2023/07/31 02:53:49;;;;;;;5.15;2.95;;;;;;;20.24;68.48;98894.88;4323445;33;33288;-86
2023/07/31 02:56:17;;;;;;;5.95;3.00;;;;;;;20.13;68.93;98894.34;4347350;32;32841;-90
2023/07/31 02:58:45;;;;;;;6.22;2.72;;;;;;;19.83;69.63;98893.50;4359888;32;34213;-85
2023/07/31 03:01:13;;;;;;;4.57;2.90;;;;;;;20.29;68.22;98890.31;4358010;32;33372;-91
2023/07/31 03:03:42;;;;;;;4.15;2.70;;;;;;;19.66;70.46;98896.59;4346278;33;34722;-86
2023/07/31 03:06:12;;;;;;;6.05;3.03;;;;;;;19.96;69.51;98894.84;4346554;33;34041;-86
2023/07/31 03:08:40;;;;;;;5.05;3.10;;;;;;;20.06;69.20;98898.94;4346092;33;33264;-86
2023/07/31 03:11:08;;;;;;;5.78;2.55;;;;;;;19.76;70.04;98913.84;4346414;33;33332;-87
2023/07/31 03:13:35;;;;;;;4.65;2.87;;;;;;;19.62;70.28;98909.00;4350687;32;33993;-85
2023/07/31 03:16:03;;;;;;;6.65;3.35;;;;;;;19.92;69.13;98917.75;4361005;32;34252;-86
2023/07/31 03:18:31;;;;;;;6.65;2.80;;;;;;;20.21;67.94;98916.03;4358199;32;34914;-88
2023/07/31 03:20:58;;;;;;;6.95;2.95;;;;;;;20.11;68.17;98909.31;4346050;33;34455;-86
2023/07/31 03:23:26;;;;;;;5.00;2.85;;;;;;;20.27;67.44;98912.38;4345605;33;33571;-90
2023/07/31 03:26:03;;;;;;;5.03;2.60;;;;;;;19.95;68.78;98910.69;4346339;33;34803;-84
2023/07/31 03:28:31;;;;;;;4.30;2.55;;;;;;;19.84;69.00;98916.25;4332863;33;33746;-89
2023/07/31 03:30:59;;;;;;;5.55;2.62;;;;;;;19.93;68.35;98908.97;4345809;33;34292;-85
2023/07/31 03:33:26;;;;;;;6.18;2.62;;;;;;;19.84;68.98;98903.94;4346127;33;33670;-91
2023/07/31 03:35:55;;;;;;;5.95;2.55;;;;;;;19.84;69.04;98914.47;4345807;33;34885;-86
2023/07/31 03:38:22;;;;;;;5.35;2.58;;;;;;;19.99;68.22;98918.44;4346003;33;34407;-86
2023/07/31 03:40:50;;;;;;;6.43;2.90;;;;;;;19.81;68.80;98927.75;4346209;33;32871;-87
2023/07/31 03:43:17;;;;;;;7.30;2.67;;;;;;;20.04;68.00;98919.19;4346233;33;34723;-87
2023/07/31 03:45:45;;;;;;;4.68;2.58;;;;;;;20.04;67.94;98916.53;4345951;33;34416;-86
2023/07/31 03:48:14;;;;;;;5.05;2.25;;;;;;;20.00;67.94;98920.19;4346364;33;34060;-85
2023/07/31 03:50:42;;;;;;;6.03;2.47;;;;;;;20.16;67.40;98920.56;4354232;32;33407;-91
2023/07/31 03:53:09;;;;;;;6.03;2.30;;;;;;;20.26;67.04;98921.16;4361072;32;34110;-90
2023/07/31 03:55:37;;;;;;;5.25;2.50;;;;;;;20.35;66.67;98921.75;4360398;32;34609;-90
2023/07/31 03:58:04;;;;;;;6.32;2.45;;;;;;;20.75;65.41;98919.63;4360193;32;34097;-85
2023/07/31 04:00:32;;;;;;;5.57;2.83;;;;;;;20.27;66.25;98922.91;4358036;32;33370;-85
2023/07/31 04:02:59;;;;;;;4.70;2.83;;;;;;;20.24;66.64;98917.72;4337936;32;34777;-88
2023/07/31 04:05:27;;;;;;;3.70;2.22;;;;;;;20.42;66.45;98918.00;4354381;32;34971;-87
2023/07/31 04:07:54;;;;;;;5.95;2.33;;;;;;;20.51;65.98;98918.66;4343473;32;33897;-86
2023/07/31 04:10:22;;;;;;;5.62;2.28;;;;;;;20.51;66.08;98914.25;4354257;32;33256;-91
2023/07/31 04:12:50;;;;;;;6.60;2.70;;;;;;;20.47;65.96;98920.50;4345505;32;34008;-88
2023/07/31 04:15:17;;;;;;;6.75;2.53;;;;;;;20.53;65.75;98919.44;4349257;32;35202;-86
2023/07/31 04:17:45;;;;;;;4.82;2.72;;;;;;;20.49;65.74;98917.78;4360700;32;34824;-85
2023/07/31 04:20:13;;;;;;;5.90;2.40;;;;;;;20.58;65.81;98917.56;4356160;32;33325;-88
2023/07/31 04:22:40;;;;;;;5.22;2.20;;;;;;;20.94;64.99;98926.03;4345316;32;33835;-87
2023/07/31 04:25:08;;;;;;;4.30;2.20;;;;;;;20.65;64.93;98921.72;4348052;32;34300;-90
2023/07/31 04:27:35;;;;;;;6.03;2.25;;;;;;;20.62;65.54;98920.03;4345714;32;33605;-90
2023/07/31 04:30:03;;;;;;;5.53;2.42;;;;;;;20.72;65.08;98920.63;4345953;32;33430;-87
2023/07/31 04:32:31;;;;;;;5.75;2.28;;;;;;;20.76;65.05;98924.88;4345798;32;33790;-88
2023/07/31 04:34:59;;;;;;;5.70;2.50;;;;;;;20.61;64.87;98923.59;4346543;32;33394;-92
2023/07/31 04:37:26;;;;;;;4.85;2.35;;;;;;;21.01;64.06;98924.06;4345609;32;34838;-88
2023/07/31 04:39:54;;;;;;;5.22;2.58;;;;;;;21.04;63.61;98921.31;4356344;32;33329;-87
2023/07/31 04:42:21;;;;;;;3.90;1.90;;;;;;;20.85;64.09;98919.28;4359815;32;33743;-86
2023/07/31 04:44:49;;;;;;;4.93;2.37;;;;;;;20.98;64.06;98916.25;4359342;32;34185;-88
2023/07/31 04:47:17;;;;;;;4.80;2.33;;;;;;;21.20;63.46;98911.09;4359984;32;34488;-90
2023/07/31 04:49:44;;;;;;;5.07;2.30;;;;;;;21.05;64.04;98923.88;4360279;32;33753;-85
2023/07/31 04:52:12;;;;;;;6.75;2.80;;;;;;;21.12;63.40;98920.13;4356909;32;34786;-86
2023/07/31 04:54:39;;;;;;;5.93;2.35;;;;;;;21.07;63.82;98921.22;4347159;32;34165;-85
2023/07/31 04:57:07;;;;;;;6.20;2.25;;;;;;;20.88;64.74;98929.75;4356128;32;33776;-90
2023/07/31 04:59:34;;;;;;;5.28;1.90;;;;;;;20.55;62.62;98928.19;4359652;32;32898;-91
2023/07/31 05:02:02;;;;;;;4.03;1.58;;;;;;;20.83;61.37;98928.16;4347365;32;34130;-85
2023/07/31 05:04:30;;;;;;;3.83;1.83;;;;;;;20.87;60.76;98920.13;4331788;32;34923;-85
2023/07/31 05:06:57;;;;;;;4.80;1.95;;;;;;;20.25;60.83;98919.44;4357377;32;33556;-85
2023/07/31 05:09:25;;;;;;;2.83;1.48;;;;;;;20.84;59.37;98909.66;4346896;32;34303;-89
2023/07/31 05:11:52;;;;;;;3.40;1.45;;;;;;;21.08;56.03;98909.75;4345760;33;33997;-88
2023/07/31 05:14:20;;;;;;;3.47;1.30;;;;;;;21.15;54.55;98906.00;4345334;32;33518;-88
2023/07/31 05:16:48;;;;;;;6.25;1.80;;;;;;;20.92;56.66;98905.94;4346278;32;34217;-83
2023/07/31 05:19:16;;;;;;;3.37;1.30;;;;;;;21.37;53.96;98899.09;4345311;32;33455;-91
2023/07/31 05:21:45;;;;;;;5.20;1.70;;;;;;;21.25;55.64;98914.44;4346582;32;34037;-90
2023/07/31 05:24:13;;;;;;;4.37;1.55;;;;;;;20.75;55.40;98904.69;4352078;32;34062;-88
2023/07/31 05:26:41;;;;;;;3.62;1.27;;;;;;;20.54;55.78;98910.66;4345097;33;34182;-90
2023/07/31 05:29:09;;;;;;;5.78;1.55;;;;;;;20.76;56.51;98914.34;4342397;32;32838;-89
2023/07/31 05:31:38;;;;;;;3.47;1.40;;;;;;;20.81;55.84;98916.81;4322103;32;33836;-85
2023/07/31 05:34:05;;;;;;;5.62;1.70;;;;;;;20.27;56.52;98918.50;4359644;32;34290;-84
2023/07/31 05:36:33;;;;;;;5.80;1.65;;;;;;;21.19;54.51;98907.62;4360934;32;33987;-86
2023/07/31 05:39:06;;;;;;;3.40;1.37;;;;;;;21.32;54.17;98914.16;4361300;32;32718;-91
2023/07/31 05:41:34;;;;;;;7.05;2.10;;;;;;;21.68;53.14;98924.38;4344264;32;33725;-88
2023/07/31 05:44:02;;;;;;;4.45;1.60;;;;;;;21.18;53.42;98911.16;4346987;33;34063;-89
2023/07/31 05:46:31;;;;;;;4.28;1.60;;;;;;;21.68;51.82;98923.53;4346806;33;34828;-87
2023/07/31 05:49:00;;;;;;;4.80;1.65;;;;;;;20.81;53.94;98922.09;4346927;33;33972;-84
2023/07/31 05:51:28;;;;;;;6.68;1.37;;;;;;;21.07;52.70;98916.81;4333361;33;33726;-89
2023/07/31 05:53:56;;;;;;;3.70;1.50;;;;;;;20.98;53.16;98918.87;4346606;33;34172;-83
2023/07/31 05:56:23;;;;;;;5.45;1.55;;;;;;;20.86;53.76;98914.88;4346480;33;33946;-86
2023/07/31 05:58:51;;;;;;;6.20;1.75;;;;;;;21.54;51.62;98918.72;4347034;33;34228;-88
2023/07/31 06:01:21;;;;;;;4.15;1.83;;;;;;;21.28;52.64;98911.69;4346742;33;35041;-86
2023/07/31 06:03:48;;;;;;;5.22;1.60;;;;;;;21.53;51.95;98919.66;4346514;33;34168;-84
2023/07/31 06:06:16;;;;;;;4.68;1.65;;;;;;;21.40;52.29;98915.72;4346914;33;34810;-83
2023/07/31 06:08:43;;;;;;;5.50;1.80;;;;;;;21.50;52.29;98923.25;4346608;33;34271;-86
2023/07/31 06:11:11;;;;;;;5.18;1.73;;;;;;;21.73;52.21;98919.78;4346443;33;35517;-88
2023/07/31 06:13:39;;;;;;;4.55;1.70;;;;;;;21.75;53.02;98928.50;4346934;33;33780;-85
2023/07/31 06:16:09;;;;;;;4.70;1.48;;;;;;;21.94;51.14;98926.06;4347101;32;33332;-87
2023/07/31 06:18:37;;;;;;;4.72;1.50;;;;;;;22.39;50.24;98919.09;4361692;32;34331;-86
2023/07/31 06:21:04;;;;;;;5.30;1.60;;;;;;;22.59;50.06;98920.03;4361608;32;34776;-87
2023/07/31 06:23:31;;;;;;;4.20;1.92;;;;;;;22.31;49.91;98924.66;4358603;32;33710;-85
2023/07/31 06:25:59;;;;;;;5.10;1.52;;;;;;;22.15;51.02;98916.50;4346477;32;34106;-84
2023/07/31 06:28:29;;;;;;;6.07;1.90;;;;;;;22.24;50.49;98926.72;4346613;32;33467;-89
2023/07/31 06:30:59;;;;;;;10.25;1.70;;;;;;;21.99;51.07;98915.31;4347478;32;34078;-86
2023/07/31 06:33:28;;;;;;;7.10;1.65;;;;;;;21.99;51.64;98932.00;4347048;32;34364;-90
2023/07/31 06:35:55;;;;;;;3.62;1.33;;;;;;;22.53;49.18;98916.78;4354716;32;33680;-92
2023/07/31 06:38:25;;;;;;;5.35;1.98;;;;;;;21.72;50.75;98933.91;4349478;32;33205;-84
2023/07/31 06:40:53;;;;;;;3.42;1.37;;;;;;;21.92;51.11;98930.53;4343878;32;33965;-91
2023/07/31 06:43:21;;;;;;;6.35;1.62;;;;;;;22.15;50.45;98939.38;4361512;32;34985;-86
2023/07/31 06:45:51;;;;;;;3.90;1.48;;;;;;;22.27;50.22;98925.72;4337560;32;33281;-83
2023/07/31 06:48:19;;;;;;;5.95;1.80;;;;;;;21.43;50.57;98939.34;4347937;32;33048;-89
2023/07/31 06:50:47;;;;;;;5.05;1.73;;;;;;;21.65;51.63;98940.31;4345937;33;34289;-85
2023/07/31 06:53:14;;;;;;;4.93;1.25;;;;;;;21.84;50.49;98941.37;4351165;32;33042;-86
2023/07/31 06:55:42;;;;;;;5.70;1.85;;;;;;;21.84;50.19;98945.78;4345941;33;34739;-85
2023/07/31 06:58:10;;;;;;;4.62;1.75;;;;;;;21.78;50.24;98952.16;4346108;33;34317;-85
2023/07/31 07:00:37;;;;;;;6.55;1.42;;;;;;;21.62;50.96;98940.41;4345986;33;33730;-83
2023/07/31 07:03:05;;;;;;;5.05;1.60;;;;;;;21.84;50.40;98959.84;4346186;33;35062;-85
2023/07/31 07:05:32;;;;;;;4.03;1.30;;;;;;;22.03;50.38;98964.44;4345358;33;33915;-92
2023/07/31 07:08:00;;;;;;;5.85;1.77;;;;;;;22.02;49.75;98960.94;4343257;33;33139;-85
2023/07/31 07:10:27;;;;;;;4.22;1.62;;;;;;;22.12;50.11;98956.16;4345650;33;34800;-86
2023/07/31 07:12:55;;;;;;;3.58;1.45;;;;;;;22.10;49.98;98947.47;4346190;33;34867;-89
2023/07/31 07:15:22;;;;;;;4.78;1.50;;;;;;;22.75;49.41;98959.06;4345936;33;33827;-83
2023/07/31 07:17:50;;;;;;;4.55;1.48;;;;;;;22.73;50.11;98953.84;4345792;33;33109;-86
2023/07/31 07:20:19;;;;;;;5.15;1.30;;;;;;;22.89;47.75;98953.22;4345887;33;33987;-91
2023/07/31 07:22:47;;;;;;;4.07;1.60;;;;;;;23.42;48.23;98955.44;4346047;33;34096;-86
2023/07/31 07:25:15;;;;;;;3.97;1.60;;;;;;;22.88;46.81;98941.78;4346267;33;33954;-91
2023/07/31 07:27:42;;;;;;;6.28;1.95;;;;;;;22.85;47.79;98946.34;4331672;33;33655;-87
2023/07/31 07:30:10;;;;;;;4.90;1.45;;;;;;;23.27;48.00;98949.87;4354750;32;34007;-91
2023/07/31 07:32:37;;;;;;;4.03;1.30;;;;;;;23.71;46.52;98949.75;4346287;33;34095;-88
2023/07/31 07:35:06;;;;;;;8.27;1.58;;;;;;;23.22;46.24;98943.94;4347688;32;34965;-87
2023/07/31 07:37:33;;;;;;;4.07;1.20;;;;;;;23.35;46.03;98957.47;4347021;32;33209;-87
2023/07/31 07:40:01;;;;;;;4.97;1.30;;;;;;;23.10;46.69;98947.06;4346289;32;33902;-92
2023/07/31 07:42:29;;;;;;;3.78;1.33;;;;;;;22.67;46.48;98953.22;4345777;32;33791;-84
2023/07/31 07:44:56;;;;;;;6.10;1.60;;;;;;;22.02;48.04;98953.03;4346213;32;33951;-94
2023/07/31 07:47:24;;;;;;;7.03;1.60;;;;;;;22.20;47.42;98953.28;4346222;32;34457;-93
2023/07/31 07:49:55;;;;;;;5.53;1.58;;;;;;;22.36;48.12;98956.22;4345763;32;33613;-86
2023/07/31 07:52:22;;;;;;;3.80;1.60;;;;;;;22.73;47.37;98953.84;4346960;32;34757;-88
2023/07/31 07:54:50;;;;;;;8.02;1.87;;;;;;;22.97;46.63;98956.44;4349185;32;34316;-85
2023/07/31 07:57:18;;;;;;;6.30;2.33;;;;;;;23.36;45.52;98947.75;4346077;33;32797;-88
2023/07/31 07:59:45;;;;;;;4.47;1.37;;;;;;;23.01;45.13;98958.88;4344982;33;34845;-89
2023/07/31 08:02:13;;;;;;;4.28;1.30;;;;;;;23.20;44.69;98948.41;4345786;33;34252;-85
2023/07/31 08:04:41;;;;;;;6.32;1.77;;;;;;;23.33;44.53;98947.88;4346024;33;34005;-89
2023/07/31 08:07:12;;;;;;;4.50;1.50;;;;;;;23.77;43.67;98949.47;4345768;33;33422;-86
2023/07/31 08:09:41;;;;;;;5.60;1.50;;;;;;;23.61;44.50;98959.00;4331765;32;33381;-84
2023/07/31 08:12:08;;;;;;;5.57;1.60;;;;;;;23.79;42.40;98952.94;4331551;32;35060;-86
2023/07/31 08:14:36;;;;;;;6.43;1.60;;;;;;;23.98;43.25;98955.63;4347028;32;34838;-87
2023/07/31 08:17:04;;;;;;;3.92;1.87;;;;;;;23.93;43.52;98954.94;4346523;32;32920;-85
2023/07/31 08:19:32;;;;;;;3.83;1.73;;;;;;;23.87;43.15;98954.38;4356150;32;34301;-90
2023/07/31 08:21:59;;;;;;;5.18;1.45;;;;;;;23.88;43.62;98945.50;4345902;33;34268;-87
2023/07/31 08:24:27;;;;;;;4.18;1.58;;;;;;;23.63;43.06;98962.41;4345558;33;34569;-87
2023/07/31 08:26:55;;;;;;;4.65;1.75;;;;;;;23.52;43.22;98954.09;4345748;33;33490;-87
2023/07/31 08:29:22;;;;;;;4.72;1.80;;;;;;;23.95;42.65;98954.88;4345895;32;34029;-87
2023/07/31 08:31:50;;;;;;;6.20;1.60;;;;;;;23.84;43.37;98958.00;4345680;33;34544;-84
2023/07/31 08:34:17;;;;;;;5.80;1.60;;;;;;;24.00;42.18;98961.69;4345504;32;34262;-89
2023/07/31 08:36:45;;;;;;;5.15;1.60;;;;;;;24.18;42.42;98960.00;4351375;32;33460;-88
2023/07/31 08:39:12;;;;;;;3.47;1.27;;;;;;;23.95;42.06;98963.69;4360433;32;34532;-89
2023/07/31 08:41:41;;;;;;;6.82;1.67;;;;;;;24.26;41.96;98968.44;4357483;32;34056;-89
2023/07/31 08:44:08;;;;;;;4.32;1.67;;;;;;;24.21;41.94;98956.34;4346442;33;34782;-90
2023/07/31 08:46:37;;;;;;;7.93;1.50;;;;;;;24.80;41.80;98951.81;4332036;33;34562;-88
2023/07/31 08:49:07;;;;;;;7.43;1.87;;;;;;;24.13;41.44;98967.31;4333672;33;32956;-86
2023/07/31 08:51:35;;;;;;;5.43;1.40;;;;;;;24.03;41.57;98960.69;4344471;33;34265;-86
2023/07/31 08:54:05;;;;;;;4.12;1.30;;;;;;;24.23;42.42;98957.97;4338744;33;34174;-90
2023/07/31 08:56:33;;;;;;;7.03;1.50;;;;;;;24.38;41.22;98951.09;4345190;33;33190;-86
2023/07/31 08:59:02;;;;;;;3.80;1.30;;;;;;;24.51;41.80;98962.03;4332115;33;33792;-85
2023/07/31 09:01:31;;;;;;;5.45;1.50;;;;;;;24.71;40.27;98943.38;4345331;33;34877;-86
2023/07/31 09:04:00;;;;;;;4.10;1.50;;;;;;;24.51;40.26;98956.75;4331778;33;33676;-82
2023/07/31 09:06:30;;;;;;;7.47;1.50;;;;;;;24.67;40.59;98956.87;4344746;33;33800;-90
2023/07/31 09:08:57;;;;;;;4.78;1.42;;;;;;;24.23;41.70;98935.94;4344810;33;32689;-93
2023/07/31 09:11:25;;;;;;;6.32;1.30;;;;;;;24.49;40.82;98948.84;4350751;32;34607;-90
2023/07/31 09:13:53;;;;;;;5.80;1.73;;;;;;;24.60;41.40;98926.28;4334076;32;33922;-91
2023/07/31 09:16:28;;;;;;;6.57;1.52;;;;;;;24.50;40.96;98934.66;4340301;33;33273;-88
2023/07/31 09:18:56;;;;;;;6.20;1.45;;;;;;;24.85;41.35;98934.75;4348068;32;34545;-91
2023/07/31 09:21:25;;;;;;;6.85;1.45;;;;;;;24.75;41.12;98926.37;4348248;32;34280;-85
2023/07/31 09:23:54;;;;;;;6.85;1.50;;;;;;;24.70;40.16;98931.06;4330446;33;34476;-85
2023/07/31 09:26:33;;;;;;;5.65;1.58;;;;;;;24.83;41.84;98931.31;4339992;33;33277;-85
2023/07/31 09:29:01;;;;;;;7.32;1.67;;;;;;;24.71;40.77;98931.91;4345423;33;33915;-87
2023/07/31 09:31:41;;;;;;;4.50;1.85;;;;;;;24.55;39.75;98930.94;4331463;33;35188;-88
2023/07/31 09:34:11;;;;;;;4.68;1.60;;;;;;;24.42;40.20;98930.66;4345075;33;33781;-92
2023/07/31 09:36:47;;;;;;;5.20;1.37;;;;;;;24.77;39.48;98915.69;4331991;33;34272;-90
2023/07/31 09:39:16;;;;;;;4.87;1.15;;;;;;;24.81;39.64;98922.56;4344762;33;33669;-87
2023/07/31 09:41:46;;;;;;;4.62;1.00;;;;;;;24.85;39.12;98917.97;4345321;33;35057;-89
2023/07/31 09:44:14;;;;;;;4.72;1.40;;;;;;;25.05;39.51;98925.81;4346327;32;34221;-90
2023/07/31 09:46:42;;;;;;;6.28;1.45;;;;;;;25.09;39.65;98923.84;4346463;32;33642;-91
2023/07/31 09:49:11;;;;;;;5.00;1.30;;;;;;;25.42;39.41;98923.94;4345730;32;33877;-86
2023/07/31 09:51:40;;;;;;;9.85;1.52;;;;;;;25.15;38.44;98912.94;4333092;33;35126;-89
2023/07/31 09:54:10;;;;;;;7.15;1.52;;;;;;;24.99;39.59;98916.34;4345160;33;33476;-91
2023/07/31 09:56:46;;;;;;;4.40;1.37;;;;;;;25.20;38.42;98918.91;4345695;32;33915;-89
2023/07/31 09:59:18;;;;;;;4.47;1.17;;;;;;;25.09;39.45;98919.41;4344907;33;33679;-87
2023/07/31 10:01:51;;;;;;;3.47;1.37;;;;;;;25.09;39.52;98927.37;4344841;33;34256;-92
2023/07/31 10:04:25;;;;;;;5.60;1.37;;;;;;;25.51;37.23;98922.62;4332229;33;35028;-83
2023/07/31 10:06:53;;;;;;;6.40;1.30;;;;;;;25.39;37.54;98927.63;4331396;33;33568;-85
2023/07/31 10:09:25;;;;;;;6.28;3.17;;;;;;;25.32;37.79;98930.69;4344686;33;34047;-92
2023/07/31 10:11:56;;;;;;;7.70;1.60;;;;;;;25.31;37.44;98921.00;4344718;33;34138;-88
2023/07/31 10:14:25;;;;;;;4.32;1.17;;;;;;;25.29;37.80;98925.53;4339783;33;34682;-89
2023/07/31 10:16:53;;;;;;;10.68;2.67;;;;;;;25.47;37.44;98921.94;4331761;33;31644;-92
2023/07/31 10:19:21;;;;;;;4.97;1.60;;;;;;;25.78;38.28;98920.31;4331270;33;33529;-88
2023/07/31 10:21:49;;;;;;;6.95;1.48;;;;;;;25.90;38.42;98914.38;4331303;33;33880;-89
2023/07/31 10:24:17;;;;;;;4.10;1.17;;;;;;;26.07;36.76;98918.78;4345796;33;33696;-89
2023/07/31 10:26:45;;;;;;;6.00;1.90;;;;;;;25.71;36.59;98933.91;4345779;33;33972;-92
2023/07/31 10:29:15;;;;;;;3.72;1.40;;;;;;;25.84;38.45;98915.56;4345959;32;34049;-85
2023/07/31 10:31:44;;;;;;;5.57;1.25;;;;;;;25.80;36.63;98919.34;4332069;33;34570;-87
2023/07/31 10:34:12;;;;;;;3.60;0.90;;;;;;;25.79;36.91;98922.91;4346270;33;34508;-88
2023/07/31 10:36:40;;;;;;;5.40;1.50;;;;;;;26.19;35.69;98912.78;4332939;33;33083;-90
2023/07/31 10:39:35;;;;;;;4.90;1.35;;;;;;;26.08;37.48;98912.53;4346055;33;33749;-91
2023/07/31 10:42:12;;;;;;;6.27;1.53;;;;;;;26.17;36.40;98906.69;4346640;33;34148;-89
2023/07/31 10:44:49;;;;;;;5.57;1.45;;;;;;;26.13;37.42;98905.13;4346460;33;33775;-91
2023/07/31 10:47:17;;;;;;;5.82;1.37;;;;;;;26.19;37.37;98895.03;4346165;33;33447;-90
2023/07/31 10:49:46;;;;;;;10.00;1.48;;;;;;;26.28;37.30;98900.78;4345805;32;34642;-82
2023/07/31 10:52:22;;;;;;;7.00;1.55;;;;;;;26.46;35.53;98894.47;4332454;33;34637;-91
2023/07/31 10:55:39;;;;;;;4.55;1.40;;;;;;;26.51;36.92;98905.69;4333822;33;34745;-89
2023/07/31 10:58:11;;;;;;;4.53;1.50;;;;;;;26.18;35.27;98901.31;4271043;33;33697;-89
2023/07/31 11:00:41;;;;;;;6.95;1.40;;;;;;;26.46;35.91;98891.81;4314432;33;34712;-92
2023/07/31 11:03:21;;;;;;;5.10;1.10;;;;;;;26.65;35.33;98899.59;4341479;33;34927;-86
2023/07/31 11:05:59;;;;;;;10.93;1.33;;;;;;;26.54;35.09;98894.88;4345487;32;33835;-90
2023/07/31 11:08:31;;;;;;;5.03;1.33;;;;;;;26.70;35.38;98892.19;4345983;33;33371;-87
2023/07/31 11:11:02;;;;;;;5.82;1.65;;;;;;;26.97;35.66;98904.84;4345475;33;34893;-90
2023/07/31 11:13:39;;;;;;;5.12;1.12;;;;;;;26.43;34.48;98889.28;4346100;33;33793;-86
2023/07/31 11:16:08;;;;;;;5.15;1.20;;;;;;;26.43;32.78;98889.28;4332983;33;34093;-89
2023/07/31 11:18:38;;;;;;;5.80;1.50;;;;;;;26.32;33.33;98894.34;4332933;33;34275;-88
2023/07/31 11:21:07;;;;;;;4.53;1.20;;;;;;;26.54;34.39;98886.91;4345936;33;33384;-87
2023/07/31 11:23:37;;;;;;;5.12;1.10;;;;;;;26.08;33.89;98892.12;4332674;33;34025;-92
2023/07/31 11:26:05;;;;;;;6.55;1.20;;;;;;;26.07;35.20;98885.09;4346829;33;33203;-94
2023/07/31 11:28:34;;;;;;;5.20;1.20;;;;;;;26.19;34.57;98878.25;4345920;32;33622;-89
2023/07/31 11:31:03;;;;;;;6.12;1.35;;;;;;;25.96;34.60;98875.06;4345758;33;33871;-86
2023/07/31 11:33:31;;;;;;;3.90;1.20;;;;;;;26.19;33.42;98871.13;4332135;33;34219;-90
2023/07/31 11:35:58;;;;;;;5.50;1.20;;;;;;;26.20;33.87;98872.84;4345111;33;34016;-89
2023/07/31 11:38:28;;;;;;;6.20;1.17;;;;;;;26.05;33.81;98875.50;4346303;33;33588;-91
2023/07/31 11:41:02;;;;;;;6.47;1.10;;;;;;;26.58;34.25;98868.97;4346500;33;34697;-85
2023/07/31 11:43:33;;;;;;;7.20;1.58;;;;;;;26.44;33.78;98867.94;4346230;33;33349;-87